Charlotte, NC

4:05 AM EDT on August 25, 2016 (GMT -0400)
Eastover | | Change Station

Elev 0 ft 35.19 °N, 80.82 °W | Updated 23 seconds ago

Partly Cloudy
Partly Cloudy
69.7 °F
Feels Like 69.7 °F
N
0.0
Wind Variable Wind from South
Gusts 0.0 mph

Today
High -- | Low -- °F
--% Chance of Precip.
Yesterday
High -- | Low -- °F
Precip. -- in
Pressure 30.16 in
Visibility 10.0 miles
Clouds Few 25000 ft
Dew Point 65 °F
Humidity 85%
Rainfall 0.00 in
Snow Depth Not available.
6:50 AM 7:58 PM
Waning Gibbous, 48% visible
METAR KCLT 250752Z 17006KT 10SM FEW250 23/17 A3019 RMK AO2 SLP211 T02280172
Pressure 30.16 in
Visibility 10.0 miles
Clouds Few 25000 ft
Dew Point 65 °F
Humidity 85%
Rainfall 0.00 in
Snow Depth Not available.
6:50 AM 7:58 PM
Waning Gibbous, 48% visible
METAR KCLT 250752Z 17006KT 10SM FEW250 23/17 A3019 RMK AO2 SLP211 T02280172

10-Day Weather Forecast

Almanac

Astronomy

Aug. 25, 2016 Rise Set
Actual Time
Civil Twilight
Nautical Twilight
Astronomical Twilight
Moon
Length of Visible Light
Length of Day
Tomorrow will be .
, % of the Moon is Illuminated

Today's Extremes

State Highs State Lows

Community

WunderPhotos

Upload Photos

1,934,814 photos uploaded!

WunderBlog® & News

Nearby

Air Quality

  Air Quality AQ Index Pollutant
Not available.

Snow Depth

Station Depth Elevation

Earthquake Activity

City Distance Mag. Time & Date
Minimum magnitude displayed is 2.5.

Coastal Water Temperatures

Place Temperature

Stations

Nearby Weather Stations

Station Location Temp. Windchill Dew Point Humidity Wind Precip. Elev Updated Type
                   

Watches & Warnings

There are currently no watches in effect.